Time;durP1;ratioP1;P1;durP2;ratioP2;P2;SDS_P1;SDS_P2;PMS_P1;PMS_P2;Temp;Humidity;BMP_temperature;BMP_pressure;BME280_temperature;BME280_humidity;BME280_pressure;Samples;Min_cycle;Max_cycle;Signal;HPM_P1;HPM_P2
2023/04/12 00:01:11;;;;;;;5.95;1.40;;;13.30;47.50;;;;;;4980478;28;20061;-44
2023/04/12 00:03:38;;;;;;;5.93;1.10;;;13.30;47.40;;;;;;4981865;28;20142;-44
2023/04/12 00:06:06;;;;;;;9.98;1.20;;;13.30;47.40;;;;;;4982940;28;20061;-45
2023/04/12 00:08:34;;;;;;;6.38;1.58;;;13.30;47.60;;;;;;4982473;28;20073;-43
2023/04/12 00:11:02;;;;;;;6.60;1.38;;;13.30;47.80;;;;;;4982075;28;20056;-44
2023/04/12 00:13:30;;;;;;;5.93;1.20;;;13.30;47.80;;;;;;4986035;28;20058;-44
2023/04/12 00:15:57;;;;;;;9.90;1.40;;;13.30;47.80;;;;;;4986496;28;20050;-45
2023/04/12 00:18:26;;;;;;;6.00;1.30;;;13.30;48.00;;;;;;4989235;28;20045;-45
2023/04/12 00:20:54;;;;;;;8.95;1.73;;;13.30;48.20;;;;;;4981232;28;20058;-45
2023/04/12 00:23:21;;;;;;;10.48;1.70;;;13.30;48.40;;;;;;4986259;28;20077;-47
2023/04/12 00:25:49;;;;;;;8.95;1.63;;;13.30;48.90;;;;;;4993072;28;20418;-43
2023/04/12 00:28:16;;;;;;;6.53;1.40;;;13.30;48.50;;;;;;4988287;28;20062;-47
2023/04/12 00:30:44;;;;;;;5.53;1.40;;;13.20;48.60;;;;;;4981514;28;20511;-44
2023/04/12 00:33:12;;;;;;;12.73;2.03;;;13.20;48.70;;;;;;4982715;28;21191;-44
2023/04/12 00:35:40;;;;;;;10.73;2.03;;;13.20;48.80;;;;;;4986188;28;20082;-44
2023/04/12 00:38:09;;;;;;;6.97;2.00;;;13.20;48.90;;;;;;4986526;28;20508;-46
2023/04/12 00:40:37;;;;;;;8.05;2.05;;;13.20;49.00;;;;;;4982620;28;20058;-46
2023/04/12 00:43:04;;;;;;;6.07;1.80;;;13.20;49.00;;;;;;4989790;28;20506;-46
2023/04/12 00:45:31;;;;;;;7.95;2.20;;;13.10;49.10;;;;;;4987093;28;20149;-47
2023/04/12 00:47:59;;;;;;;9.57;2.10;;;13.10;49.20;;;;;;4986743;28;20054;-45
2023/04/12 00:50:27;;;;;;;4.50;1.73;;;13.10;49.30;;;;;;4986891;28;20513;-44
2023/04/12 00:52:57;;;;;;;5.30;1.35;;;13.10;49.50;;;;;;4999647;28;20605;-46
2023/04/12 00:55:24;;;;;;;5.55;1.52;;;13.10;49.50;;;;;;4976413;28;20054;-43
2023/04/12 00:57:52;;;;;;;8.82;2.03;;;13.10;49.60;;;;;;4991097;28;20054;-44
2023/04/12 01:00:21;;;;;;;8.52;1.67;;;13.10;49.80;;;;;;4987599;28;20050;-44
2023/04/12 01:02:49;;;;;;;7.70;1.67;;;13.10;50.00;;;;;;5007774;23;20058;-42
2023/04/12 01:05:20;;;;;;;6.50;1.52;;;13.10;50.00;;;;;;4951874;28;20063;-42
2023/04/12 01:07:54;;;;;;;7.05;1.25;;;13.10;50.00;;;;;;4951820;28;20055;-41
2023/04/12 01:10:33;;;;;;;4.72;1.10;;;13.00;50.10;;;;;;4951552;28;20051;-39
2023/04/12 01:13:11;;;;;;;8.35;1.60;;;13.00;50.10;;;;;;4951399;28;20054;-40
2023/04/12 01:15:46;;;;;;;4.30;0.90;;;13.00;50.30;;;;;;4950935;28;20070;-39
2023/04/12 01:18:19;;;;;;;7.47;1.40;;;13.00;50.20;;;;;;4951629;28;20066;-41
2023/04/12 01:20:56;;;;;;;5.15;1.00;;;12.90;50.30;;;;;;4950264;28;20070;-39
2023/04/12 01:23:51;;;;;;;9.20;1.95;;;12.90;50.50;;;;;;4951609;28;20055;-42
2023/04/12 01:26:33;;;;;;;7.95;1.50;;;12.80;50.70;;;;;;4948652;28;20055;-42
2023/04/12 01:29:04;;;;;;;6.07;1.20;;;12.80;50.60;;;;;;4951081;28;20055;-38
2023/04/12 01:31:35;;;;;;;7.72;1.50;;;12.80;50.50;;;;;;4951055;28;20066;-43
2023/04/12 01:34:03;;;;;;;8.00;1.70;;;12.70;50.60;;;;;;4950404;28;20415;-38
2023/04/12 01:36:31;;;;;;;6.55;1.77;;;12.70;51.30;;;;;;4950678;28;20491;-40
2023/04/12 01:38:59;;;;;;;5.57;1.10;;;12.70;51.00;;;;;;4954419;28;20054;-39
2023/04/12 01:41:26;;;;;;;9.68;1.98;;;12.70;51.50;;;;;;4951273;28;20427;-40
2023/04/12 01:43:54;;;;;;;5.60;1.25;;;12.70;51.20;;;;;;4951451;28;20092;-39
2023/04/12 01:46:23;;;;;;;7.80;1.15;;;12.70;51.20;;;;;;4951956;28;20419;-37
2023/04/12 01:48:52;;;;;;;6.53;1.40;;;12.70;51.20;;;;;;4949874;28;20058;-39
2023/04/12 01:51:31;;;;;;;6.00;1.90;;;12.70;51.50;;;;;;4950342;28;20074;-37
2023/04/12 01:54:03;;;;;;;5.03;1.17;;;12.60;51.50;;;;;;4948762;28;20074;-39
2023/04/12 01:56:34;;;;;;;4.97;1.40;;;12.60;51.60;;;;;;4948453;28;20078;-40
2023/04/12 01:59:03;;;;;;;7.18;1.40;;;12.60;51.70;;;;;;4948329;28;20059;-40
2023/04/12 02:01:32;;;;;;;6.72;1.35;;;12.60;51.80;;;;;;4948841;28;20506;-37
2023/04/12 02:04:03;;;;;;;7.10;1.45;;;12.60;51.90;;;;;;4946618;28;20526;-39
2023/04/12 02:06:31;;;;;;;7.22;1.55;;;12.60;52.00;;;;;;4946749;28;20056;-40
2023/04/12 02:09:01;;;;;;;5.53;1.40;;;12.60;52.30;;;;;;4947704;28;20062;-41
2023/04/12 02:11:28;;;;;;;8.93;1.60;;;12.50;52.30;;;;;;4948048;28;20054;-40
2023/04/12 02:13:55;;;;;;;8.90;1.70;;;12.50;52.30;;;;;;4949323;28;20400;-37
2023/04/12 02:16:23;;;;;;;4.97;1.60;;;12.50;52.40;;;;;;4947558;28;20055;-39
2023/04/12 02:18:52;;;;;;;7.65;1.40;;;12.50;52.50;;;;;;4947985;28;20062;-40
2023/04/12 02:21:20;;;;;;;5.80;1.75;;;12.50;52.70;;;;;;4946750;28;20707;-43
2023/04/12 02:23:47;;;;;;;6.95;1.50;;;12.50;52.90;;;;;;4947262;28;20058;-39
2023/04/12 02:26:17;;;;;;;10.57;2.03;;;12.50;53.00;;;;;;4947634;28;20062;-39
2023/04/12 02:28:45;;;;;;;3.72;1.27;;;12.50;53.00;;;;;;4947136;28;20051;-41
2023/04/12 02:31:12;;;;;;;9.10;1.85;;;12.40;53.10;;;;;;4947660;28;20191;-39
2023/04/12 02:33:39;;;;;;;7.20;1.55;;;12.40;53.30;;;;;;4946593;28;20059;-39
2023/04/12 02:36:11;;;;;;;7.75;1.77;;;12.30;53.40;;;;;;4946337;28;20062;-37
2023/04/12 02:38:38;;;;;;;4.95;1.45;;;12.30;53.50;;;;;;4948090;28;20058;-44
2023/04/12 02:41:06;;;;;;;10.05;1.52;;;12.30;53.70;;;;;;4949572;28;20506;-43
2023/04/12 02:43:33;;;;;;;5.65;1.45;;;12.30;53.70;;;;;;4947661;28;20135;-41
2023/04/12 02:46:00;;;;;;;3.72;1.45;;;12.20;53.90;;;;;;4947569;28;20050;-39
2023/04/12 02:48:27;;;;;;;6.78;1.50;;;12.20;53.90;;;;;;4947506;28;20629;-42
2023/04/12 02:50:55;;;;;;;8.38;1.63;;;12.20;54.00;;;;;;4946616;28;20058;-43
2023/04/12 02:53:23;;;;;;;8.52;1.90;;;12.10;54.00;;;;;;4946657;28;20058;-41
2023/04/12 02:55:50;;;;;;;9.38;1.58;;;12.10;54.30;;;;;;4947296;28;20062;-42
2023/04/12 02:58:18;;;;;;;7.05;1.90;;;12.10;54.40;;;;;;4947653;28;20062;-42
2023/04/12 03:00:46;;;;;;;8.07;1.88;;;12.10;54.60;;;;;;4946222;28;20075;-46
2023/04/12 03:03:13;;;;;;;5.07;1.90;;;12.10;54.60;;;;;;4929532;28;20054;-41
2023/04/12 03:05:41;;;;;;;7.18;1.73;;;12.00;54.60;;;;;;4946268;28;20047;-42
2023/04/12 03:08:08;;;;;;;5.65;1.80;;;12.00;54.70;;;;;;4946859;28;20070;-41
2023/04/12 03:10:37;;;;;;;8.15;1.52;;;12.00;54.70;;;;;;4946927;28;20083;-43
2023/04/12 03:13:04;;;;;;;3.97;1.65;;;12.00;54.80;;;;;;4945904;28;20415;-44
2023/04/12 03:15:32;;;;;;;6.35;1.55;;;12.00;54.70;;;;;;4943462;28;20051;-45
2023/04/12 03:17:59;;;;;;;8.23;2.08;;;12.00;54.80;;;;;;4946897;28;20062;-42
2023/04/12 03:20:27;;;;;;;6.13;1.60;;;12.00;55.10;;;;;;4945750;28;20503;-45
2023/04/12 03:22:54;;;;;;;7.07;1.90;;;12.00;55.00;;;;;;4945809;28;20055;-44
2023/04/12 03:25:21;;;;;;;7.43;1.83;;;12.00;55.00;;;;;;4946270;28;20172;-44
2023/04/12 03:27:50;;;;;;;10.07;2.33;;;12.00;55.10;;;;;;4946952;28;20066;-41
2023/04/12 03:30:17;;;;;;;7.07;1.90;;;11.90;55.20;;;;;;4946592;28;20073;-42
2023/04/12 03:32:44;;;;;;;5.65;1.60;;;11.90;55.30;;;;;;4945491;28;20054;-42
2023/04/12 03:35:12;;;;;;;5.57;1.52;;;11.90;55.40;;;;;;4944112;28;20062;-43
2023/04/12 03:37:42;;;;;;;5.22;1.38;;;11.90;55.40;;;;;;4945596;28;20058;-45
2023/04/12 03:40:10;;;;;;;10.27;1.88;;;11.80;55.40;;;;;;4946284;28;20047;-44
2023/04/12 03:42:37;;;;;;;5.88;1.85;;;11.90;55.50;;;;;;4945943;28;20055;-44
2023/04/12 03:45:07;;;;;;;6.07;1.77;;;11.90;55.60;;;;;;4944695;28;20058;-44
2023/04/12 03:47:35;;;;;;;9.30;1.88;;;11.80;55.60;;;;;;4945357;28;21028;-46
2023/04/12 03:50:05;;;;;;;8.23;1.67;;;11.80;55.70;;;;;;4942627;28;20063;-46
2023/04/12 03:52:32;;;;;;;8.23;2.08;;;11.80;55.70;;;;;;4944388;28;20463;-43
2023/04/12 03:55:00;;;;;;;9.40;2.15;;;11.80;55.70;;;;;;4945141;28;20513;-45
2023/04/12 03:57:27;;;;;;;7.10;1.70;;;11.80;55.70;;;;;;4946642;28;20051;-43
2023/04/12 03:59:54;;;;;;;5.80;1.80;;;11.80;55.80;;;;;;4945981;28;20062;-43
2023/04/12 04:02:23;;;;;;;4.72;1.52;;;11.80;55.80;;;;;;4946109;28;20502;-45
2023/04/12 04:04:51;;;;;;;5.22;1.60;;;11.70;55.90;;;;;;4944703;28;20059;-44
2023/04/12 04:07:18;;;;;;;3.88;1.50;;;11.70;55.90;;;;;;4945589;28;20506;-43
2023/04/12 04:09:45;;;;;;;5.95;1.40;;;11.80;56.00;;;;;;4945667;28;20065;-48
2023/04/12 04:12:13;;;;;;;3.63;1.30;;;11.70;56.00;;;;;;4944668;28;20393;-45
2023/04/12 04:14:40;;;;;;;6.15;1.40;;;11.70;56.10;;;;;;4945820;28;20050;-45
2023/04/12 04:17:07;;;;;;;3.60;1.50;;;11.70;56.20;;;;;;4944622;28;20530;-44
2023/04/12 04:19:36;;;;;;;14.35;5.75;;;11.70;56.40;;;;;;4945401;28;20066;-45
2023/04/12 04:22:03;;;;;;;8.98;4.13;;;11.70;56.40;;;;;;4945991;28;20516;-44
2023/04/12 04:24:30;;;;;;;6.70;2.30;;;11.70;56.40;;;;;;4943958;28;20059;-42
2023/04/12 04:26:58;;;;;;;5.55;1.65;;;11.70;56.40;;;;;;4944561;28;20058;-38
2023/04/12 04:29:25;;;;;;;4.65;1.52;;;11.70;56.40;;;;;;4944561;28;20054;-39
2023/04/12 04:31:53;;;;;;;6.32;1.52;;;11.70;56.50;;;;;;4945713;28;20070;-39
2023/04/12 04:34:20;;;;;;;3.35;1.30;;;11.70;56.60;;;;;;4945873;28;20059;-40
2023/04/12 04:36:49;;;;;;;3.30;1.30;;;11.60;56.60;;;;;;4944777;28;20242;-38
2023/04/12 04:39:16;;;;;;;2.15;1.20;;;11.70;56.60;;;;;;4944888;28;20055;-38
2023/04/12 04:41:45;;;;;;;3.63;1.00;;;11.60;56.60;;;;;;4944822;28;20055;-38
2023/04/12 04:44:13;;;;;;;1.80;0.90;;;11.60;56.60;;;;;;4945621;28;20059;-40
2023/04/12 04:46:40;;;;;;;1.95;1.00;;;11.60;56.70;;;;;;4944744;28;20403;-37
2023/04/12 04:49:08;;;;;;;2.45;1.25;;;11.60;56.70;;;;;;4943421;28;20051;-43
2023/04/12 04:51:35;;;;;;;4.00;1.20;;;11.60;57.30;;;;;;4944404;28;20521;-38
2023/04/12 04:54:04;;;;;;;8.82;3.85;;;11.60;56.80;;;;;;4943418;28;20499;-41
2023/04/12 04:56:32;;;;;;;3.90;1.80;;;11.60;57.00;;;;;;4944463;28;20058;-41
2023/04/12 04:59:01;;;;;;;5.70;1.35;;;11.60;57.00;;;;;;4944822;28;20055;-38
2023/04/12 05:01:28;;;;;;;2.67;0.80;;;11.60;57.00;;;;;;4945151;28;20531;-40
2023/04/12 05:03:55;;;;;;;1.80;0.80;;;11.60;57.10;;;;;;4944556;28;20066;-41
2023/04/12 05:06:23;;;;;;;1.40;0.80;;;11.60;57.10;;;;;;4944028;28;20064;-42
2023/04/12 05:08:51;;;;;;;2.78;1.10;;;11.60;57.10;;;;;;4944657;28;20055;-45
2023/04/12 05:11:20;;;;;;;1.17;0.80;;;11.60;57.00;;;;;;4946023;28;20047;-38
2023/04/12 05:13:47;;;;;;;6.15;1.20;;;11.60;57.10;;;;;;4944079;28;20507;-38
2023/04/12 05:16:14;;;;;;;1.15;0.63;;;11.60;57.00;;;;;;4946090;28;20047;-40
2023/04/12 05:18:41;;;;;;;2.03;0.88;;;11.60;57.10;;;;;;4943397;28;20058;-42
2023/04/12 05:21:08;;;;;;;3.47;1.00;;;11.70;57.20;;;;;;4943586;28;20059;-42
2023/04/12 05:23:38;;;;;;;3.15;1.15;;;11.70;57.20;;;;;;4943541;28;20066;-44
2023/04/12 05:26:05;;;;;;;2.10;1.25;;;11.60;57.30;;;;;;4944245;28;20054;-37
2023/04/12 05:28:33;;;;;;;2.97;1.02;;;11.70;57.30;;;;;;4945959;28;20059;-38
2023/04/12 05:31:01;;;;;;;2.83;1.13;;;11.70;57.40;;;;;;4948461;28;20047;-40
2023/04/12 05:33:28;;;;;;;2.05;1.10;;;11.70;57.40;;;;;;4946740;28;20070;-41
2023/04/12 05:35:55;;;;;;;1.77;0.90;;;11.70;57.40;;;;;;4947659;28;20047;-46
2023/04/12 05:38:22;;;;;;;3.03;1.13;;;11.70;57.50;;;;;;4948343;28;20058;-44
2023/04/12 05:40:50;;;;;;;5.25;1.98;;;11.70;57.50;;;;;;4948068;28;20054;-42
2023/04/12 05:43:17;;;;;;;6.82;1.88;;;11.70;57.50;;;;;;4946973;28;20054;-42
2023/04/12 05:45:46;;;;;;;2.67;1.20;;;11.70;57.50;;;;;;4947838;28;20059;-43
2023/04/12 05:48:13;;;;;;;4.28;1.05;;;11.70;57.70;;;;;;4947710;28;20069;-46
2023/04/12 05:50:40;;;;;;;1.48;1.05;;;11.70;57.70;;;;;;4947663;28;20055;-45
2023/04/12 05:53:09;;;;;;;2.78;1.05;;;11.70;57.70;;;;;;4947488;28;20087;-45
2023/04/12 05:55:36;;;;;;;2.80;1.10;;;11.70;57.70;;;;;;4949128;28;20051;-41
2023/04/12 05:58:03;;;;;;;4.50;1.30;;;11.70;57.70;;;;;;4948202;28;20059;-47
2023/04/12 06:00:31;;;;;;;4.47;1.00;;;11.70;57.80;;;;;;4946856;28;20063;-48
2023/04/12 06:02:59;;;;;;;4.25;1.02;;;11.70;57.80;;;;;;4947079;28;20063;-42
2023/04/12 06:05:27;;;;;;;5.30;1.30;;;11.70;57.90;;;;;;4946171;28;20055;-41
2023/04/12 06:07:54;;;;;;;4.50;1.13;;;11.70;57.90;;;;;;4948195;28;20047;-42
2023/04/12 06:10:21;;;;;;;3.83;1.52;;;11.70;58.10;;;;;;4947408;28;20055;-45
2023/04/12 06:12:49;;;;;;;3.45;1.25;;;11.70;58.10;;;;;;4948263;28;20054;-43
2023/04/12 06:15:18;;;;;;;2.83;1.08;;;11.70;58.20;;;;;;4947233;28;20411;-46
2023/04/12 06:17:45;;;;;;;3.42;1.00;;;11.70;58.20;;;;;;4946463;28;20485;-43
2023/04/12 06:20:14;;;;;;;3.58;1.40;;;11.70;58.30;;;;;;4946670;28;20422;-42
2023/04/12 06:22:41;;;;;;;3.17;0.95;;;11.70;58.40;;;;;;4947265;28;20063;-43
2023/04/12 06:25:09;;;;;;;3.33;1.40;;;11.70;58.60;;;;;;4948027;28;20086;-42
2023/04/12 06:27:36;;;;;;;2.60;1.20;;;11.70;58.70;;;;;;4947350;28;20055;-44
2023/04/12 06:30:04;;;;;;;3.55;1.10;;;11.70;58.60;;;;;;4948156;28;20503;-43
2023/04/12 06:32:31;;;;;;;2.55;0.85;;;11.70;58.60;;;;;;4947462;28;20055;-44
2023/04/12 06:34:58;;;;;;;3.78;1.35;;;11.70;58.80;;;;;;4946574;28;20055;-45
2023/04/12 06:37:27;;;;;;;3.40;1.30;;;11.70;58.70;;;;;;4946597;28;20047;-46
2023/04/12 06:39:54;;;;;;;3.67;1.55;;;11.70;58.80;;;;;;4946670;28;20506;-45
2023/04/12 06:42:21;;;;;;;2.22;1.00;;;11.70;58.80;;;;;;4947087;28;20059;-46
2023/04/12 06:44:48;;;;;;;2.47;1.10;;;11.70;58.90;;;;;;4946864;28;20055;-44
2023/04/12 06:47:15;;;;;;;1.83;1.10;;;11.70;58.90;;;;;;4948263;28;20051;-43
2023/04/12 06:49:43;;;;;;;3.72;1.23;;;11.70;59.00;;;;;;4945868;28;20058;-47
2023/04/12 06:52:10;;;;;;;1.27;0.90;;;11.70;59.00;;;;;;4947313;28;20430;-43
2023/04/12 06:54:39;;;;;;;2.75;1.27;;;11.70;59.10;;;;;;4947364;28;20518;-47
2023/04/12 06:57:09;;;;;;;2.10;1.27;;;11.70;59.10;;;;;;4946871;28;20391;-43
2023/04/12 06:59:37;;;;;;;3.65;0.93;;;11.80;59.10;;;;;;4946558;28;20526;-47
2023/04/12 07:02:05;;;;;;;2.60;0.98;;;11.80;59.20;;;;;;4947146;28;20404;-45
2023/04/12 07:04:32;;;;;;;1.95;0.80;;;11.80;59.20;;;;;;4947603;28;20070;-46
2023/04/12 07:06:59;;;;;;;2.72;0.80;;;11.80;59.20;;;;;;4944668;28;20552;-42
2023/04/12 07:09:27;;;;;;;2.25;0.73;;;11.80;59.30;;;;;;4946949;28;20446;-45
2023/04/12 07:11:55;;;;;;;1.23;0.77;;;11.80;59.30;;;;;;4946789;28;20070;-43
2023/04/12 07:14:23;;;;;;;5.35;1.08;;;11.80;59.30;;;;;;4945464;28;20055;-43
2023/04/12 07:16:50;;;;;;;2.17;0.75;;;11.80;59.40;;;;;;4946511;28;20059;-43
2023/04/12 07:19:17;;;;;;;1.63;0.70;;;11.80;59.40;;;;;;4946784;28;20051;-45
2023/04/12 07:21:44;;;;;;;2.85;1.00;;;11.80;59.50;;;;;;4947010;28;20055;-44
2023/04/12 07:24:12;;;;;;;3.30;0.90;;;11.80;59.40;;;;;;4945788;28;20055;-45
2023/04/12 07:26:39;;;;;;;2.47;0.70;;;11.80;59.50;;;;;;4946502;28;20066;-46
2023/04/12 07:29:07;;;;;;;3.53;0.85;;;11.90;59.50;;;;;;4946491;28;20058;-46
2023/04/12 07:31:35;;;;;;;2.70;1.38;;;11.90;59.70;;;;;;4945683;28;20518;-44
2023/04/12 07:34:02;;;;;;;3.63;1.00;;;11.90;59.80;;;;;;4944975;28;20490;-47
2023/04/12 07:36:30;;;;;;;1.58;0.82;;;11.90;59.80;;;;;;4945777;28;20058;-42
2023/04/12 07:38:57;;;;;;;1.75;0.70;;;12.00;59.80;;;;;;4946840;28;20062;-43
2023/04/12 07:41:24;;;;;;;1.45;0.70;;;12.00;59.70;;;;;;4946037;28;20074;-41
2023/04/12 07:43:51;;;;;;;5.40;0.63;;;12.00;59.80;;;;;;4946288;28;20051;-41
2023/04/12 07:46:20;;;;;;;3.17;0.70;;;12.00;59.70;;;;;;4945968;28;20051;-43
2023/04/12 07:48:47;;;;;;;2.17;0.82;;;12.00;59.70;;;;;;4945168;28;20408;-43
2023/04/12 07:51:14;;;;;;;1.13;0.63;;;12.00;59.70;;;;;;4945664;28;20483;-44
2023/04/12 07:53:46;;;;;;;4.85;0.80;;;12.00;59.70;;;;;;4945633;28;20066;-44
2023/04/12 07:56:14;;;;;;;1.10;0.80;;;12.10;59.80;;;;;;4946049;28;20067;-42
2023/04/12 07:58:41;;;;;;;3.03;0.80;;;12.10;59.80;;;;;;4943984;28;20066;-42
2023/04/12 08:01:08;;;;;;;4.00;0.68;;;12.10;59.90;;;;;;4945315;28;20507;-44
2023/04/12 08:03:37;;;;;;;3.42;0.52;;;12.20;60.00;;;;;;4943651;28;20086;-45
2023/04/12 08:06:05;;;;;;;2.78;0.63;;;12.20;60.00;;;;;;4947043;28;20499;-44
2023/04/12 08:08:32;;;;;;;1.50;0.70;;;12.20;60.10;;;;;;4944508;28;20668;-42
2023/04/12 08:11:01;;;;;;;1.73;0.70;;;12.20;60.10;;;;;;4945994;28;20066;-45
2023/04/12 08:13:28;;;;;;;2.22;0.85;;;12.20;60.20;;;;;;4945047;28;20062;-44
2023/04/12 08:15:55;;;;;;;2.05;0.82;;;12.20;60.20;;;;;;4945595;28;20081;-41
2023/04/12 08:18:23;;;;;;;2.85;0.60;;;12.30;60.20;;;;;;4945177;28;20051;-42
2023/04/12 08:20:51;;;;;;;2.08;0.60;;;12.30;60.30;;;;;;4944883;28;20074;-45
2023/04/12 08:23:19;;;;;;;5.45;0.68;;;12.30;60.30;;;;;;4945457;28;20066;-43
2023/04/12 08:25:46;;;;;;;1.35;0.52;;;12.30;60.20;;;;;;4944648;28;20063;-47
2023/04/12 08:28:13;;;;;;;1.67;0.50;;;12.40;60.10;;;;;;4946918;28;20510;-42
2023/04/12 08:30:40;;;;;;;0.90;0.43;;;12.40;60.00;;;;;;4944597;28;20055;-45
2023/04/12 08:33:07;;;;;;;4.35;0.60;;;12.40;60.10;;;;;;4945477;28;20085;-42
2023/04/12 08:35:36;;;;;;;1.83;0.77;;;12.40;60.00;;;;;;4943616;28;20503;-45
2023/04/12 08:38:06;;;;;;;0.80;0.60;;;12.50;60.00;;;;;;4945780;28;20055;-42
2023/04/12 08:40:33;;;;;;;0.95;0.65;;;12.50;60.10;;;;;;4944519;28;20066;-46
2023/04/12 08:43:02;;;;;;;1.90;0.80;;;12.50;60.40;;;;;;4945575;28;20388;-45
2023/04/12 08:45:32;;;;;;;1.95;0.65;;;12.50;60.40;;;;;;4945676;28;20070;-43
2023/04/12 08:48:00;;;;;;;1.55;0.80;;;12.50;60.50;;;;;;4945325;28;20047;-43
2023/04/12 08:50:27;;;;;;;1.13;0.82;;;12.50;60.50;;;;;;4943567;28;20063;-45
2023/04/12 08:52:57;;;;;;;1.75;0.63;;;12.60;60.50;;;;;;4945131;28;20491;-43
2023/04/12 08:55:26;;;;;;;1.27;0.50;;;12.60;60.70;;;;;;4944558;28;20067;-44
2023/04/12 08:57:55;;;;;;;1.13;0.50;;;12.60;60.80;;;;;;4944853;28;20047;-43
2023/04/12 09:00:22;;;;;;;2.08;0.65;;;12.70;60.70;;;;;;4944984;28;20063;-44
2023/04/12 09:02:49;;;;;;;2.78;0.90;;;12.70;60.80;;;;;;4946328;28;20504;-43
2023/04/12 09:05:18;;;;;;;0.40;0.40;;;12.70;60.80;;;;;;4945936;28;20065;-48
2023/04/12 09:07:45;;;;;;;1.08;0.60;;;12.80;60.60;;;;;;4948451;28;20058;-42
2023/04/12 09:10:32;;;;;;;1.15;0.50;;;12.80;60.60;;;;;;4949215;28;21264;-43
2023/04/12 09:12:59;;;;;;;1.80;0.65;;;12.90;61.10;;;;;;4948262;28;20415;-46
2023/04/12 09:15:27;;;;;;;1.77;0.73;;;12.90;60.80;;;;;;4947825;28;20055;-43
2023/04/12 09:18:07;;;;;;;1.65;0.60;;;13.00;61.00;;;;;;4949061;28;20510;-43
2023/04/12 09:20:35;;;;;;;2.30;0.75;;;12.90;61.30;;;;;;4948923;28;20059;-44
2023/04/12 09:23:17;;;;;;;1.42;0.60;;;13.00;61.40;;;;;;4947537;28;20070;-43
2023/04/12 09:25:47;;;;;;;1.08;0.50;;;13.10;61.60;;;;;;4948435;28;20066;-42
2023/04/12 09:28:25;;;;;;;0.73;0.50;;;13.10;61.30;;;;;;4948546;28;20624;-43
2023/04/12 09:30:52;;;;;;;1.60;0.75;;;13.20;61.50;;;;;;4948704;28;20395;-42
2023/04/12 09:33:22;;;;;;;1.90;0.60;;;13.20;61.00;;;;;;4948426;28;20055;-44
2023/04/12 09:35:50;;;;;;;2.35;0.70;;;13.30;60.90;;;;;;4950973;28;20066;-44
2023/04/12 09:38:17;;;;;;;0.85;0.68;;;13.30;60.70;;;;;;4948331;28;20062;-44
2023/04/12 09:40:48;;;;;;;0.95;0.68;;;13.30;60.50;;;;;;4948655;28;20510;-45
2023/04/12 09:43:16;;;;;;;1.70;0.75;;;13.40;60.70;;;;;;4948607;28;20440;-44
2023/04/12 09:45:43;;;;;;;1.33;0.63;;;13.40;60.70;;;;;;4948079;28;20066;-46
2023/04/12 09:48:19;;;;;;;1.67;0.60;;;13.50;61.00;;;;;;4946906;28;20058;-43
2023/04/12 09:50:47;;;;;;;1.60;0.70;;;13.50;61.30;;;;;;4947734;28;20054;-42
2023/04/12 09:53:17;;;;;;;1.33;0.55;;;13.50;61.00;;;;;;4948628;28;20480;-49
2023/04/12 09:55:48;;;;;;;2.10;0.80;;;13.50;60.90;;;;;;4947456;28;20055;-45
2023/04/12 09:58:19;;;;;;;1.92;0.60;;;13.60;60.80;;;;;;4947800;28;20055;-46
2023/04/12 10:00:47;;;;;;;1.00;0.60;;;13.60;60.90;;;;;;4947904;28;20063;-41
2023/04/12 10:03:14;;;;;;;0.65;0.60;;;13.60;60.90;;;;;;4947181;28;20500;-42
2023/04/12 10:05:42;;;;;;;0.70;0.60;;;13.70;61.60;;;;;;4946716;28;20511;-45
2023/04/12 10:08:11;;;;;;;1.10;0.63;;;13.70;61.00;;;;;;4947940;28;20495;-44
2023/04/12 10:10:39;;;;;;;2.50;0.60;;;13.80;61.30;;;;;;4948699;28;20478;-43
2023/04/12 10:13:12;;;;;;;1.13;0.60;;;13.80;61.10;;;;;;4947497;28;20062;-47
2023/04/12 10:15:40;;;;;;;0.57;0.50;;;13.80;61.00;;;;;;4946312;28;20059;-46
2023/04/12 10:18:08;;;;;;;1.52;0.60;;;13.90;61.10;;;;;;4948248;28;20403;-45
2023/04/12 10:20:36;;;;;;;1.92;0.70;;;13.90;61.00;;;;;;4946536;28;20134;-45
2023/04/12 10:23:06;;;;;;;9.85;1.35;;;13.90;60.90;;;;;;4948253;28;20047;-48
2023/04/12 10:25:33;;;;;;;2.83;0.90;;;14.00;61.20;;;;;;4947239;28;20070;-48
2023/04/12 10:28:16;;;;;;;0.77;0.60;;;14.00;62.10;;;;;;4947142;28;20051;-45
2023/04/12 10:30:43;;;;;;;1.48;0.65;;;14.00;61.60;;;;;;4946769;28;20066;-43
2023/04/12 10:33:18;;;;;;;1.38;0.80;;;14.10;61.60;;;;;;4947364;28;20058;-46
2023/04/12 10:35:58;;;;;;;1.27;0.70;;;14.20;62.60;;;;;;4945170;28;20074;-44
2023/04/12 10:38:31;;;;;;;0.70;0.50;;;14.20;62.60;;;;;;4948383;28;20416;-42
2023/04/12 10:41:18;;;;;;;1.58;0.70;;;14.30;62.10;;;;;;4947754;28;20055;-46
2023/04/12 10:43:48;;;;;;;0.80;0.75;;;14.40;62.20;;;;;;4947537;28;20059;-45
2023/04/12 10:46:51;;;;;;;1.05;0.60;;;14.40;61.90;;;;;;4946860;28;20571;-44
2023/04/12 10:49:18;;;;;;;0.63;0.52;;;14.50;62.20;;;;;;4946832;28;20082;-45
2023/04/12 10:52:16;;;;;;;0.95;0.52;;;14.50;61.90;;;;;;4946486;28;20090;-46
2023/04/12 10:54:44;;;;;;;1.83;0.47;;;14.60;61.80;;;;;;4945972;28;20059;-46
2023/04/12 10:57:46;;;;;;;0.77;0.68;;;14.70;61.40;;;;;;4946392;28;20055;-42
2023/04/12 11:00:15;;;;;;;1.40;0.55;;;14.80;61.80;;;;;;4869287;29;21825;-46
2023/04/12 11:03:08;;;;;;;3.03;0.50;;;14.90;61.70;;;;;;4933097;28;20055;-44
2023/04/12 11:05:56;;;;;;;1.13;0.50;;;14.90;62.30;;;;;;4907957;29;20060;-44
2023/04/12 11:08:24;;;;;;;1.38;0.70;;;15.00;62.20;;;;;;4905054;29;20052;-45
2023/04/12 11:10:52;;;;;;;1.90;0.73;;;15.10;61.50;;;;;;4910387;29;20129;-42
2023/04/12 11:13:20;;;;;;;0.50;0.30;;;15.20;61.70;;;;;;4908945;29;20052;-43
2023/04/12 11:15:55;;;;;;;1.95;0.30;;;15.30;61.50;;;;;;4908542;29;20063;-42
2023/04/12 11:18:22;;;;;;;1.08;0.60;;;15.30;61.30;;;;;;4908703;29;20528;-46
2023/04/12 11:20:52;;;;;;;0.80;0.40;;;15.40;60.80;;;;;;4907764;29;20068;-48
2023/04/12 11:23:20;;;;;;;0.20;0.20;;;15.50;60.10;;;;;;4908056;29;20489;-43
2023/04/12 11:25:52;;;;;;;0.40;0.30;;;15.60;60.10;;;;;;4907772;29;20067;-44
2023/04/12 11:28:20;;;;;;;0.98;0.40;;;15.60;60.10;;;;;;4906330;29;20052;-43
2023/04/12 11:30:52;;;;;;;0.75;0.38;;;15.70;59.80;;;;;;4907389;29;20055;-42
2023/04/12 11:33:33;;;;;;;0.30;0.30;;;15.70;59.20;;;;;;4908387;29;20056;-45
2023/04/12 11:36:04;;;;;;;2.53;0.32;;;15.80;59.00;;;;;;4910059;29;20055;-43
2023/04/12 11:38:32;;;;;;;0.50;0.32;;;15.80;58.70;;;;;;4908397;29;20066;-46
2023/04/12 11:40:59;;;;;;;0.32;0.10;;;15.80;58.30;;;;;;4906868;29;20515;-46
2023/04/12 11:43:26;;;;;;;0.88;0.40;;;15.80;57.80;;;;;;4907518;29;20056;-44
2023/04/12 11:45:58;;;;;;;3.42;0.73;;;15.80;57.00;;;;;;4907392;29;20063;-43
2023/04/12 11:48:26;;;;;;;3.03;0.68;;;15.70;56.50;;;;;;4907249;29;20416;-42
2023/04/12 11:50:53;;;;;;;0.82;0.28;;;15.60;56.40;;;;;;4906902;29;20048;-43
2023/04/12 11:53:23;;;;;;;2.05;0.68;;;15.40;56.50;;;;;;4908805;29;20059;-43
2023/04/12 11:55:50;;;;;;;2.95;0.80;;;15.30;56.90;;;;;;4908269;29;20079;-45
2023/04/12 11:58:22;;;;;;;3.80;0.80;;;15.10;57.10;;;;;;4907241;29;20458;-43
2023/04/12 12:00:50;;;;;;;1.90;0.80;;;15.00;57.20;;;;;;4907760;29;20052;-44
2023/04/12 12:03:19;;;;;;;3.03;1.10;;;14.90;57.40;;;;;;4910660;28;20060;-43
2023/04/12 12:05:47;;;;;;;1.60;1.00;;;14.70;57.50;;;;;;4945089;28;20062;-42
2023/04/12 12:08:15;;;;;;;3.15;1.50;;;14.60;57.40;;;;;;4945489;28;20055;-46
2023/04/12 12:10:43;;;;;;;3.90;2.33;;;14.50;57.60;;;;;;4945205;28;20055;-44
2023/04/12 12:13:11;;;;;;;5.25;2.75;;;14.40;57.80;;;;;;4944474;28;20495;-45
2023/04/12 12:15:38;;;;;;;7.93;3.13;;;14.40;58.20;;;;;;4945500;28;20062;-45
2023/04/12 12:18:08;;;;;;;7.40;2.97;;;14.40;58.40;;;;;;4944728;28;20491;-45
2023/04/12 12:20:41;;;;;;;5.22;2.30;;;14.30;58.60;;;;;;4944175;28;20066;-45
2023/04/12 12:23:09;;;;;;;4.40;1.60;;;14.30;58.80;;;;;;4946012;28;20055;-42
2023/04/12 12:25:36;;;;;;;4.50;1.40;;;14.30;59.00;;;;;;4946458;28;20062;-46
2023/04/12 12:28:04;;;;;;;5.13;1.25;;;14.30;58.90;;;;;;4945279;28;20514;-41
2023/04/12 12:30:32;;;;;;;3.83;1.23;;;14.30;59.10;;;;;;4944808;28;20058;-45
2023/04/12 12:32:59;;;;;;;4.88;1.45;;;14.30;59.40;;;;;;4945247;28;20503;-48
2023/04/12 12:35:27;;;;;;;8.65;1.80;;;14.30;59.20;;;;;;4944002;28;20073;-44
2023/04/12 12:37:57;;;;;;;5.97;1.52;;;14.30;59.10;;;;;;4945223;28;20066;-45
2023/04/12 12:40:31;;;;;;;2.97;1.30;;;14.30;58.90;;;;;;4944937;28;20051;-41
2023/04/12 12:42:58;;;;;;;9.88;2.20;;;14.30;59.30;;;;;;4947216;28;20059;-44
2023/04/12 12:45:27;;;;;;;7.55;1.88;;;14.30;59.50;;;;;;4944641;28;20499;-47
2023/04/12 12:47:58;;;;;;;4.32;1.60;;;14.30;59.40;;;;;;4944929;28;20055;-47
2023/04/12 12:50:27;;;;;;;7.05;1.58;;;14.30;58.50;;;;;;4943132;28;20058;-43
2023/04/12 12:52:56;;;;;;;5.15;2.08;;;14.30;58.20;;;;;;4945045;28;20061;-46
2023/04/12 12:55:24;;;;;;;3.67;1.48;;;14.30;58.40;;;;;;4945270;28;20089;-42